Alytus Airport


Codes: EYAL/
Name: Alytus Airport
City: Alytus
Country: Lithuania
Elevation: 269 ft.

Photos at Alytus Airport


   Photos courtesy of SpottingLog. You can add your own sightings and photos by signing up for a free trial today.



No photos found.

Weather at Alytus Airport


Time (UTC)DescriptionTempratureWindCloud coverageVisibilityPressureHumidity
19-Apr-2024 06:00Snow3°C11 mph, N100%0m1005hPa98%
19-Apr-2024 09:00Light Rain4°C11 mph, NW100%5313m1005hPa92%
19-Apr-2024 12:00Light Rain7°C9 mph, NW97%10000m1004hPa62%
19-Apr-2024 15:00Overcast Clouds8°C9 mph, W94%10000m1003hPa53%
19-Apr-2024 18:00Light Rain5°C4 mph, W86%10000m1004hPa77%
19-Apr-2024 21:00Overcast Clouds4°C4 mph, S100%10000m1005hPa85%
20-Apr-2024 00:00Overcast Clouds2°C7 mph, S98%10000m1005hPa94%
20-Apr-2024 03:00Overcast Clouds3°C4 mph, S94%10000m1006hPa96%
20-Apr-2024 06:00Overcast Clouds6°C9 mph, SE97%10000m1007hPa83%
20-Apr-2024 09:00Light Rain5°C11 mph, S100%353m1008hPa96%
20-Apr-2024 12:00Light Rain7°C13 mph, SW100%10000m1010hPa80%
20-Apr-2024 15:00Light Rain9°C9 mph, SW93%10000m1011hPa76%
20-Apr-2024 18:00Light Rain6°C4 mph, NW95%10000m1014hPa93%
20-Apr-2024 21:00Light Rain4°C7 mph, W100%2333m1016hPa97%
21-Apr-2024 00:00Moderate Rain3°C4 mph, NW100%307m1017hPa97%
21-Apr-2024 03:00Overcast Clouds2°C7 mph, N100%0m1019hPa98%
21-Apr-2024 06:00Overcast Clouds2°C9 mph, N100%0m1020hPa97%
21-Apr-2024 09:00Overcast Clouds3°C11 mph, N100%10000m1022hPa92%
21-Apr-2024 12:00Overcast Clouds5°C11 mph, N100%10000m1021hPa80%
21-Apr-2024 15:00Overcast Clouds6°C11 mph, N100%10000m1020hPa83%
21-Apr-2024 18:00Overcast Clouds5°C13 mph, N100%10000m1019hPa88%
21-Apr-2024 21:00Light Rain4°C13 mph, N100%10000m1017hPa94%
22-Apr-2024 00:00Overcast Clouds5°C13 mph, N100%10000m1015hPa96%
22-Apr-2024 03:00Overcast Clouds4°C16 mph, N100%10000m1013hPa94%
22-Apr-2024 06:00Light Rain3°C16 mph, N100%0m1012hPa96%
22-Apr-2024 09:00Light Rain3°C18 mph, NW100%65m1011hPa96%
22-Apr-2024 12:00Light Snow3°C16 mph, NW100%36m1011hPa96%
22-Apr-2024 15:00Light Snow2°C16 mph, NW100%28m1012hPa96%
22-Apr-2024 18:00Light Snow2°C16 mph, NW100%565m1012hPa97%
22-Apr-2024 21:00Light Snow2°C13 mph, NW100%257m1013hPa97%
23-Apr-2024 00:00Light Snow0°C16 mph, N100%0m1014hPa97%
23-Apr-2024 03:00Light Snow1°C13 mph, NW100%10000m1014hPa91%
23-Apr-2024 06:00Overcast Clouds2°C13 mph, NW100%10000m1015hPa85%
23-Apr-2024 09:00Overcast Clouds3°C13 mph, NW100%10000m1016hPa73%
23-Apr-2024 12:00Overcast Clouds8°C13 mph, NW98%10000m1016hPa53%
23-Apr-2024 15:00Overcast Clouds7°C11 mph, NW85%10000m1016hPa54%
23-Apr-2024 18:00Overcast Clouds2°C7 mph, W85%10000m1017hPa75%
23-Apr-2024 21:00Clear Sky-1°C4 mph, W6%10000m1017hPa85%
24-Apr-2024 00:00Few Clouds-2°C2 mph, NW14%10000m1017hPa90%
24-Apr-2024 03:00Broken Clouds-2°C4 mph, NE57%10000m1016hPa89%